sensor_id;sensor_type;location;lat;lon;timestamp;temperature;humidity
39847;DHT22;25517;52.422;10.782;2022-12-05T00:01:42;2.60;99.90
39847;DHT22;25517;52.422;10.782;2022-12-05T00:04:11;2.60;99.90
39847;DHT22;25517;52.422;10.782;2022-12-05T00:06:38;2.60;99.90
39847;DHT22;25517;52.422;10.782;2022-12-05T00:09:06;2.60;99.90
39847;DHT22;25517;52.422;10.782;2022-12-05T00:11:34;2.60;99.90
39847;DHT22;25517;52.422;10.782;2022-12-05T00:14:01;2.60;99.90
39847;DHT22;25517;52.422;10.782;2022-12-05T00:16:28;2.60;99.90
39847;DHT22;25517;52.422;10.782;2022-12-05T00:18:55;2.60;99.90
39847;DHT22;25517;52.422;10.782;2022-12-05T00:21:25;2.60;99.90
39847;DHT22;25517;52.422;10.782;2022-12-05T00:23:53;2.60;99.90
39847;DHT22;25517;52.422;10.782;2022-12-05T00:26:19;2.50;99.90
39847;DHT22;25517;52.422;10.782;2022-12-05T00:28:45;2.60;99.90
39847;DHT22;25517;52.422;10.782;2022-12-05T00:31:13;2.50;99.90
39847;DHT22;25517;52.422;10.782;2022-12-05T00:33:40;2.60;99.90
39847;DHT22;25517;52.422;10.782;2022-12-05T00:36:12;2.60;99.90
39847;DHT22;25517;52.422;10.782;2022-12-05T00:38:38;2.60;99.90
39847;DHT22;25517;52.422;10.782;2022-12-05T00:41:05;2.60;99.90
39847;DHT22;25517;52.422;10.782;2022-12-05T00:43:31;2.60;99.90
39847;DHT22;25517;52.422;10.782;2022-12-05T00:46:05;2.50;99.90
39847;DHT22;25517;52.422;10.782;2022-12-05T00:48:31;2.50;99.90
39847;DHT22;25517;52.422;10.782;2022-12-05T00:51:16;2.50;99.90
39847;DHT22;25517;52.422;10.782;2022-12-05T00:53:46;2.50;99.90
39847;DHT22;25517;52.422;10.782;2022-12-05T00:56:15;2.50;99.90
39847;DHT22;25517;52.422;10.782;2022-12-05T00:58:42;2.50;99.90
39847;DHT22;25517;52.422;10.782;2022-12-05T01:01:17;2.50;99.90
39847;DHT22;25517;52.422;10.782;2022-12-05T01:03:44;2.50;99.90
39847;DHT22;25517;52.422;10.782;2022-12-05T01:06:11;2.50;99.90
39847;DHT22;25517;52.422;10.782;2022-12-05T01:08:37;2.50;99.90
39847;DHT22;25517;52.422;10.782;2022-12-05T01:11:04;2.50;99.90
39847;DHT22;25517;52.422;10.782;2022-12-05T01:13:30;2.50;99.90
39847;DHT22;25517;52.422;10.782;2022-12-05T01:15:56;2.50;99.90
39847;DHT22;25517;52.422;10.782;2022-12-05T01:18:23;2.50;99.90
39847;DHT22;25517;52.422;10.782;2022-12-05T01:20:49;2.50;99.90
39847;DHT22;25517;52.422;10.782;2022-12-05T01:23:15;2.50;99.90
39847;DHT22;25517;52.422;10.782;2022-12-05T01:25:43;2.50;99.90
39847;DHT22;25517;52.422;10.782;2022-12-05T01:28:09;2.50;99.90
39847;DHT22;25517;52.422;10.782;2022-12-05T01:30:41;2.50;99.90
39847;DHT22;25517;52.422;10.782;2022-12-05T01:33:07;2.50;99.90
39847;DHT22;25517;52.422;10.782;2022-12-05T01:35:34;2.50;99.90
39847;DHT22;25517;52.422;10.782;2022-12-05T01:37:59;2.50;99.90
39847;DHT22;25517;52.422;10.782;2022-12-05T01:40:25;2.50;99.90
39847;DHT22;25517;52.422;10.782;2022-12-05T01:42:51;2.50;99.90
39847;DHT22;25517;52.422;10.782;2022-12-05T01:45:38;2.50;99.90
39847;DHT22;25517;52.422;10.782;2022-12-05T01:48:11;2.50;99.90
39847;DHT22;25517;52.422;10.782;2022-12-05T01:50:38;2.50;99.90
39847;DHT22;25517;52.422;10.782;2022-12-05T01:53:04;2.50;99.90
39847;DHT22;25517;52.422;10.782;2022-12-05T01:55:30;2.50;99.90
39847;DHT22;25517;52.422;10.782;2022-12-05T01:57:56;2.50;99.90
39847;DHT22;25517;52.422;10.782;2022-12-05T02:00:22;2.60;99.90
39847;DHT22;25517;52.422;10.782;2022-12-05T02:03:08;2.60;99.90
39847;DHT22;25517;52.422;10.782;2022-12-05T02:05:36;2.50;99.90
39847;DHT22;25517;52.422;10.782;2022-12-05T02:08:04;2.50;99.90
39847;DHT22;25517;52.422;10.782;2022-12-05T02:10:37;2.50;99.90
39847;DHT22;25517;52.422;10.782;2022-12-05T02:13:17;2.50;99.90
39847;DHT22;25517;52.422;10.782;2022-12-05T02:16:21;2.50;99.90
39847;DHT22;25517;52.422;10.782;2022-12-05T02:31:05;2.50;99.90
39847;DHT22;25517;52.422;10.782;2022-12-05T02:33:52;2.50;99.90
39847;DHT22;25517;52.422;10.782;2022-12-05T02:36:29;2.50;99.90
39847;DHT22;25517;52.422;10.782;2022-12-05T02:39:16;2.50;99.90
39847;DHT22;25517;52.422;10.782;2022-12-05T02:41:54;2.50;99.90
39847;DHT22;25517;52.422;10.782;2022-12-05T02:44:27;2.50;99.90
39847;DHT22;25517;52.422;10.782;2022-12-05T02:46:56;2.50;99.90
39847;DHT22;25517;52.422;10.782;2022-12-05T02:49:29;2.50;99.90
39847;DHT22;25517;52.422;10.782;2022-12-05T02:51:57;2.50;99.90
39847;DHT22;25517;52.422;10.782;2022-12-05T02:54:32;2.50;99.90
39847;DHT22;25517;52.422;10.782;2022-12-05T02:56:58;2.50;99.90
39847;DHT22;25517;52.422;10.782;2022-12-05T02:59:25;2.50;99.90
39847;DHT22;25517;52.422;10.782;2022-12-05T03:01:51;2.50;99.90
39847;DHT22;25517;52.422;10.782;2022-12-05T03:04:19;2.50;99.90
39847;DHT22;25517;52.422;10.782;2022-12-05T03:06:48;2.50;99.90
39847;DHT22;25517;52.422;10.782;2022-12-05T03:09:21;2.50;99.90
39847;DHT22;25517;52.422;10.782;2022-12-05T03:12:08;2.50;99.90
39847;DHT22;25517;52.422;10.782;2022-12-05T03:14:43;2.50;99.90
39847;DHT22;25517;52.422;10.782;2022-12-05T03:17:15;2.50;99.90
39847;DHT22;25517;52.422;10.782;2022-12-05T03:22:31;2.50;99.90
39847;DHT22;25517;52.422;10.782;2022-12-05T03:24:58;2.50;99.90
39847;DHT22;25517;52.422;10.782;2022-12-05T03:27:31;2.50;99.90
39847;DHT22;25517;52.422;10.782;2022-12-05T03:30:09;2.60;99.90
39847;DHT22;25517;52.422;10.782;2022-12-05T03:35:23;2.60;99.90
39847;DHT22;25517;52.422;10.782;2022-12-05T03:38:06;2.60;99.90
39847;DHT22;25517;52.422;10.782;2022-12-05T03:43:15;2.60;99.90
39847;DHT22;25517;52.422;10.782;2022-12-05T03:45:49;2.60;99.90
39847;DHT22;25517;52.422;10.782;2022-12-05T03:51:03;2.60;99.90
39847;DHT22;25517;52.422;10.782;2022-12-05T03:53:39;2.60;99.90
39847;DHT22;25517;52.422;10.782;2022-12-05T03:56:23;2.60;99.90
39847;DHT22;25517;52.422;10.782;2022-12-05T03:59:04;2.60;99.90
39847;DHT22;25517;52.422;10.782;2022-12-05T04:01:32;2.60;99.90
39847;DHT22;25517;52.422;10.782;2022-12-05T04:04:09;2.60;99.90
39847;DHT22;25517;52.422;10.782;2022-12-05T04:06:37;2.60;99.90
39847;DHT22;25517;52.422;10.782;2022-12-05T04:09:09;2.60;99.90
39847;DHT22;25517;52.422;10.782;2022-12-05T04:11:39;2.60;99.90
39847;DHT22;25517;52.422;10.782;2022-12-05T04:14:33;2.60;99.90
39847;DHT22;25517;52.422;10.782;2022-12-05T04:17:06;2.60;99.90
39847;DHT22;25517;52.422;10.782;2022-12-05T04:19:46;2.60;99.90
39847;DHT22;25517;52.422;10.782;2022-12-05T04:22:33;2.50;99.90
39847;DHT22;25517;52.422;10.782;2022-12-05T04:25:00;2.50;99.90
39847;DHT22;25517;52.422;10.782;2022-12-05T04:28:20;2.50;99.90
39847;DHT22;25517;52.422;10.782;2022-12-05T04:30:51;2.50;99.90
39847;DHT22;25517;52.422;10.782;2022-12-05T04:33:35;2.50;99.90
39847;DHT22;25517;52.422;10.782;2022-12-05T04:36:14;2.50;99.90
39847;DHT22;25517;52.422;10.782;2022-12-05T04:39:10;2.50;99.90
39847;DHT22;25517;52.422;10.782;2022-12-05T04:41:47;2.50;99.90
39847;DHT22;25517;52.422;10.782;2022-12-05T04:44:18;2.40;99.90
39847;DHT22;25517;52.422;10.782;2022-12-05T04:46:54;2.40;99.90
39847;DHT22;25517;52.422;10.782;2022-12-05T04:49:22;2.40;99.90
39847;DHT22;25517;52.422;10.782;2022-12-05T04:51:51;2.40;99.90
39847;DHT22;25517;52.422;10.782;2022-12-05T04:54:26;2.40;99.90
39847;DHT22;25517;52.422;10.782;2022-12-05T04:57:04;2.40;99.90
39847;DHT22;25517;52.422;10.782;2022-12-05T04:59:37;2.50;99.90
39847;DHT22;25517;52.422;10.782;2022-12-05T05:02:07;2.40;99.90
39847;DHT22;25517;52.422;10.782;2022-12-05T05:04:41;2.40;99.90
39847;DHT22;25517;52.422;10.782;2022-12-05T05:07:11;2.50;99.90
39847;DHT22;25517;52.422;10.782;2022-12-05T05:09:38;2.40;99.90
39847;DHT22;25517;52.422;10.782;2022-12-05T05:12:04;2.50;99.90
39847;DHT22;25517;52.422;10.782;2022-12-05T05:14:30;2.50;99.90
39847;DHT22;25517;52.422;10.782;2022-12-05T05:16:56;2.50;99.90
39847;DHT22;25517;52.422;10.782;2022-12-05T05:19:23;2.50;99.90
39847;DHT22;25517;52.422;10.782;2022-12-05T05:21:50;2.50;99.90
39847;DHT22;25517;52.422;10.782;2022-12-05T05:24:17;2.50;99.90
39847;DHT22;25517;52.422;10.782;2022-12-05T05:26:44;2.50;99.90
39847;DHT22;25517;52.422;10.782;2022-12-05T05:29:11;2.40;99.90
39847;DHT22;25517;52.422;10.782;2022-12-05T05:31:38;2.40;99.90
39847;DHT22;25517;52.422;10.782;2022-12-05T05:34:04;2.40;99.90
39847;DHT22;25517;52.422;10.782;2022-12-05T05:36:30;2.40;99.90
39847;DHT22;25517;52.422;10.782;2022-12-05T05:38:58;2.30;99.90
39847;DHT22;25517;52.422;10.782;2022-12-05T05:41:27;2.30;99.90
39847;DHT22;25517;52.422;10.782;2022-12-05T05:43:53;2.30;99.90
39847;DHT22;25517;52.422;10.782;2022-12-05T05:46:21;2.30;99.90
39847;DHT22;25517;52.422;10.782;2022-12-05T05:48:48;2.30;99.90
39847;DHT22;25517;52.422;10.782;2022-12-05T05:51:14;2.20;99.90
39847;DHT22;25517;52.422;10.782;2022-12-05T05:53:41;2.20;99.90
39847;DHT22;25517;52.422;10.782;2022-12-05T05:56:09;2.20;99.90
39847;DHT22;25517;52.422;10.782;2022-12-05T05:58:35;2.20;99.90
39847;DHT22;25517;52.422;10.782;2022-12-05T06:01:07;2.10;99.90
39847;DHT22;25517;52.422;10.782;2022-12-05T06:03:33;2.10;99.90
39847;DHT22;25517;52.422;10.782;2022-12-05T06:06:01;2.10;99.90
39847;DHT22;25517;52.422;10.782;2022-12-05T06:08:29;2.10;99.90
39847;DHT22;25517;52.422;10.782;2022-12-05T06:10:55;2.10;99.90
39847;DHT22;25517;52.422;10.782;2022-12-05T06:13:21;2.00;99.90
39847;DHT22;25517;52.422;10.782;2022-12-05T06:15:46;2.00;99.90
39847;DHT22;25517;52.422;10.782;2022-12-05T06:18:12;2.00;99.90
39847;DHT22;25517;52.422;10.782;2022-12-05T06:20:57;1.90;99.90
39847;DHT22;25517;52.422;10.782;2022-12-05T06:23:24;1.90;99.90
39847;DHT22;25517;52.422;10.782;2022-12-05T06:25:52;1.80;99.90
39847;DHT22;25517;52.422;10.782;2022-12-05T06:28:19;1.80;99.90
39847;DHT22;25517;52.422;10.782;2022-12-05T06:30:45;1.90;99.90
39847;DHT22;25517;52.422;10.782;2022-12-05T06:33:12;1.90;99.90
39847;DHT22;25517;52.422;10.782;2022-12-05T06:35:38;1.90;99.90
39847;DHT22;25517;52.422;10.782;2022-12-05T06:38:05;1.80;99.90
39847;DHT22;25517;52.422;10.782;2022-12-05T06:40:31;1.80;99.90
39847;DHT22;25517;52.422;10.782;2022-12-05T06:42:57;1.80;99.90
39847;DHT22;25517;52.422;10.782;2022-12-05T06:45:23;1.70;99.90
39847;DHT22;25517;52.422;10.782;2022-12-05T06:47:50;1.70;99.90
39847;DHT22;25517;52.422;10.782;2022-12-05T06:50:16;1.70;99.90
39847;DHT22;25517;52.422;10.782;2022-12-05T06:52:42;1.70;99.90
39847;DHT22;25517;52.422;10.782;2022-12-05T06:55:08;1.70;99.90
39847;DHT22;25517;52.422;10.782;2022-12-05T06:57:34;1.70;99.90
39847;DHT22;25517;52.422;10.782;2022-12-05T07:00:00;1.70;99.90
39847;DHT22;25517;52.422;10.782;2022-12-05T07:02:44;1.70;99.90
39847;DHT22;25517;52.422;10.782;2022-12-05T07:05:11;1.70;99.90
39847;DHT22;25517;52.422;10.782;2022-12-05T07:07:37;1.70;99.90
39847;DHT22;25517;52.422;10.782;2022-12-05T07:10:04;1.70;99.90
39847;DHT22;25517;52.422;10.782;2022-12-05T07:12:31;1.70;99.90
39847;DHT22;25517;52.422;10.782;2022-12-05T07:14:57;1.60;99.90
39847;DHT22;25517;52.422;10.782;2022-12-05T07:17:23;1.60;99.90
39847;DHT22;25517;52.422;10.782;2022-12-05T07:19:50;1.60;99.90
39847;DHT22;25517;52.422;10.782;2022-12-05T07:22:20;1.60;99.90
39847;DHT22;25517;52.422;10.782;2022-12-05T07:24:45;1.60;99.90
39847;DHT22;25517;52.422;10.782;2022-12-05T07:27:12;1.60;99.90
39847;DHT22;25517;52.422;10.782;2022-12-05T07:29:38;1.60;99.90
39847;DHT22;25517;52.422;10.782;2022-12-05T07:32:05;1.60;99.90
39847;DHT22;25517;52.422;10.782;2022-12-05T07:34:31;1.60;99.90
39847;DHT22;25517;52.422;10.782;2022-12-05T07:36:56;1.50;99.90
39847;DHT22;25517;52.422;10.782;2022-12-05T07:39:25;1.50;99.90
39847;DHT22;25517;52.422;10.782;2022-12-05T07:41:53;1.50;99.90
39847;DHT22;25517;52.422;10.782;2022-12-05T07:44:22;1.50;99.90
39847;DHT22;25517;52.422;10.782;2022-12-05T07:46:48;1.60;99.90
39847;DHT22;25517;52.422;10.782;2022-12-05T07:49:14;1.60;99.90
39847;DHT22;25517;52.422;10.782;2022-12-05T07:51:44;1.60;99.90
39847;DHT22;25517;52.422;10.782;2022-12-05T07:54:10;1.60;99.90
39847;DHT22;25517;52.422;10.782;2022-12-05T07:56:36;1.60;99.90
39847;DHT22;25517;52.422;10.782;2022-12-05T07:59:02;1.60;99.90
39847;DHT22;25517;52.422;10.782;2022-12-05T08:01:28;1.60;99.90
39847;DHT22;25517;52.422;10.782;2022-12-05T08:03:56;1.60;99.90
39847;DHT22;25517;52.422;10.782;2022-12-05T08:06:28;1.60;99.90
39847;DHT22;25517;52.422;10.782;2022-12-05T08:08:55;1.60;99.90
39847;DHT22;25517;52.422;10.782;2022-12-05T08:11:29;1.70;99.90
39847;DHT22;25517;52.422;10.782;2022-12-05T08:13:55;1.60;99.90
39847;DHT22;25517;52.422;10.782;2022-12-05T08:16:25;1.70;99.90
39847;DHT22;25517;52.422;10.782;2022-12-05T08:18:55;1.70;99.90
39847;DHT22;25517;52.422;10.782;2022-12-05T08:21:22;1.70;99.90
39847;DHT22;25517;52.422;10.782;2022-12-05T08:23:50;1.70;99.90
39847;DHT22;25517;52.422;10.782;2022-12-05T08:26:22;1.80;99.90
39847;DHT22;25517;52.422;10.782;2022-12-05T08:29:10;1.80;99.90
39847;DHT22;25517;52.422;10.782;2022-12-05T08:31:43;1.70;99.90
39847;DHT22;25517;52.422;10.782;2022-12-05T08:34:12;1.80;99.90
39847;DHT22;25517;52.422;10.782;2022-12-05T08:36:38;1.80;99.90
39847;DHT22;25517;52.422;10.782;2022-12-05T08:39:05;1.80;99.90
39847;DHT22;25517;52.422;10.782;2022-12-05T08:41:32;1.80;99.90
39847;DHT22;25517;52.422;10.782;2022-12-05T08:43:59;1.80;99.90
39847;DHT22;25517;52.422;10.782;2022-12-05T08:46:31;1.80;99.90
39847;DHT22;25517;52.422;10.782;2022-12-05T08:48:57;1.80;99.90
39847;DHT22;25517;52.422;10.782;2022-12-05T08:51:22;1.80;99.90
39847;DHT22;25517;52.422;10.782;2022-12-05T08:53:48;1.90;99.90
39847;DHT22;25517;52.422;10.782;2022-12-05T08:56:14;1.90;99.90
39847;DHT22;25517;52.422;10.782;2022-12-05T08:58:40;1.90;99.90
39847;DHT22;25517;52.422;10.782;2022-12-05T09:01:08;1.90;99.90
39847;DHT22;25517;52.422;10.782;2022-12-05T09:03:35;1.90;99.90
39847;DHT22;25517;52.422;10.782;2022-12-05T09:06:16;1.90;99.90
39847;DHT22;25517;52.422;10.782;2022-12-05T09:08:42;1.90;99.90
39847;DHT22;25517;52.422;10.782;2022-12-05T09:11:13;1.90;99.90
39847;DHT22;25517;52.422;10.782;2022-12-05T09:13:39;2.00;99.90
39847;DHT22;25517;52.422;10.782;2022-12-05T09:16:10;1.90;99.90
39847;DHT22;25517;52.422;10.782;2022-12-05T09:18:36;1.90;99.90
39847;DHT22;25517;52.422;10.782;2022-12-05T09:21:10;1.90;99.90
39847;DHT22;25517;52.422;10.782;2022-12-05T09:23:37;1.90;99.90
39847;DHT22;25517;52.422;10.782;2022-12-05T09:26:04;1.90;99.90
39847;DHT22;25517;52.422;10.782;2022-12-05T09:28:31;1.90;99.90
39847;DHT22;25517;52.422;10.782;2022-12-05T09:31:08;1.90;99.90
39847;DHT22;25517;52.422;10.782;2022-12-05T09:33:36;2.00;99.90
39847;DHT22;25517;52.422;10.782;2022-12-05T09:36:04;1.90;99.90
39847;DHT22;25517;52.422;10.782;2022-12-05T09:38:30;1.90;99.90
39847;DHT22;25517;52.422;10.782;2022-12-05T09:44:00;2.00;99.90
39847;DHT22;25517;52.422;10.782;2022-12-05T09:46:51;2.00;99.90
39847;DHT22;25517;52.422;10.782;2022-12-05T09:49:22;2.00;99.90
39847;DHT22;25517;52.422;10.782;2022-12-05T09:51:50;2.10;99.90
39847;DHT22;25517;52.422;10.782;2022-12-05T09:54:17;2.10;99.90
39847;DHT22;25517;52.422;10.782;2022-12-05T09:56:43;2.10;99.90
39847;DHT22;25517;52.422;10.782;2022-12-05T09:59:14;2.10;99.90
39847;DHT22;25517;52.422;10.782;2022-12-05T10:01:57;2.10;99.90
39847;DHT22;25517;52.422;10.782;2022-12-05T10:04:57;2.10;99.90
39847;DHT22;25517;52.422;10.782;2022-12-05T10:15:09;2.20;99.90
39847;DHT22;25517;52.422;10.782;2022-12-05T10:17:39;2.20;99.90
39847;DHT22;25517;52.422;10.782;2022-12-05T10:20:14;2.20;99.90
39847;DHT22;25517;52.422;10.782;2022-12-05T10:23:05;2.30;99.90
39847;DHT22;25517;52.422;10.782;2022-12-05T10:25:33;2.30;99.90
39847;DHT22;25517;52.422;10.782;2022-12-05T10:28:05;2.30;99.90
39847;DHT22;25517;52.422;10.782;2022-12-05T10:30:34;2.30;99.90
39847;DHT22;25517;52.422;10.782;2022-12-05T10:33:21;2.30;99.90
39847;DHT22;25517;52.422;10.782;2022-12-05T10:35:48;2.30;99.90
39847;DHT22;25517;52.422;10.782;2022-12-05T10:38:27;2.30;99.90
39847;DHT22;25517;52.422;10.782;2022-12-05T10:40:56;2.30;99.90
39847;DHT22;25517;52.422;10.782;2022-12-05T10:43:28;2.20;99.90
39847;DHT22;25517;52.422;10.782;2022-12-05T10:45:55;2.30;99.90
39847;DHT22;25517;52.422;10.782;2022-12-05T10:48:23;2.30;99.90
39847;DHT22;25517;52.422;10.782;2022-12-05T10:50:55;2.30;99.90
39847;DHT22;25517;52.422;10.782;2022-12-05T10:53:42;2.20;99.90
39847;DHT22;25517;52.422;10.782;2022-12-05T10:56:43;2.30;99.90
39847;DHT22;25517;52.422;10.782;2022-12-05T10:59:23;2.20;99.90
39847;DHT22;25517;52.422;10.782;2022-12-05T11:01:54;2.30;99.90
39847;DHT22;25517;52.422;10.782;2022-12-05T11:06:55;2.30;99.90
39847;DHT22;25517;52.422;10.782;2022-12-05T11:09:25;2.30;99.90
39847;DHT22;25517;52.422;10.782;2022-12-05T11:12:20;2.30;99.90
39847;DHT22;25517;52.422;10.782;2022-12-05T11:15:18;2.40;99.90
39847;DHT22;25517;52.422;10.782;2022-12-05T11:17:47;2.40;99.90
39847;DHT22;25517;52.422;10.782;2022-12-05T11:22:50;2.40;99.90
39847;DHT22;25517;52.422;10.782;2022-12-05T11:25:45;2.40;99.90
39847;DHT22;25517;52.422;10.782;2022-12-05T11:33:40;2.40;99.90
39847;DHT22;25517;52.422;10.782;2022-12-05T11:36:18;2.40;99.90
39847;DHT22;25517;52.422;10.782;2022-12-05T11:38:45;2.40;99.90
39847;DHT22;25517;52.422;10.782;2022-12-05T11:52:59;2.50;99.90
39847;DHT22;25517;52.422;10.782;2022-12-05T11:56:13;2.50;99.90
39847;DHT22;25517;52.422;10.782;2022-12-05T11:58:58;2.50;99.90
39847;DHT22;25517;52.422;10.782;2022-12-05T12:04:25;2.50;99.90
39847;DHT22;25517;52.422;10.782;2022-12-05T12:07:24;2.50;99.90
39847;DHT22;25517;52.422;10.782;2022-12-05T12:24:52;2.60;99.90
39847;DHT22;25517;52.422;10.782;2022-12-05T12:27:23;2.50;99.90
39847;DHT22;25517;52.422;10.782;2022-12-05T12:32:52;2.60;99.90
39847;DHT22;25517;52.422;10.782;2022-12-05T12:35:49;2.60;99.90
39847;DHT22;25517;52.422;10.782;2022-12-05T12:52:19;2.70;99.90
39847;DHT22;25517;52.422;10.782;2022-12-05T12:54:52;2.80;99.90
39847;DHT22;25517;52.422;10.782;2022-12-05T13:00:21;2.80;99.90
39847;DHT22;25517;52.422;10.782;2022-12-05T13:02:56;2.80;99.90
39847;DHT22;25517;52.422;10.782;2022-12-05T13:05:43;2.80;99.90
39847;DHT22;25517;52.422;10.782;2022-12-05T13:08:34;2.80;99.90
39847;DHT22;25517;52.422;10.782;2022-12-05T13:11:06;2.80;99.90
39847;DHT22;25517;52.422;10.782;2022-12-05T13:13:59;2.80;99.90
39847;DHT22;25517;52.422;10.782;2022-12-05T13:16:35;2.80;99.90
39847;DHT22;25517;52.422;10.782;2022-12-05T13:19:05;2.80;99.90
39847;DHT22;25517;52.422;10.782;2022-12-05T13:21:31;2.80;99.90
39847;DHT22;25517;52.422;10.782;2022-12-05T13:23:58;2.80;99.90
39847;DHT22;25517;52.422;10.782;2022-12-05T13:26:29;2.80;99.90
39847;DHT22;25517;52.422;10.782;2022-12-05T13:29:01;2.80;99.90
39847;DHT22;25517;52.422;10.782;2022-12-05T13:31:41;2.80;99.90
39847;DHT22;25517;52.422;10.782;2022-12-05T13:36:57;2.70;99.90
39847;DHT22;25517;52.422;10.782;2022-12-05T13:39:50;2.70;99.90
39847;DHT22;25517;52.422;10.782;2022-12-05T13:42:35;2.60;99.90
39847;DHT22;25517;52.422;10.782;2022-12-05T13:45:14;2.70;99.90
39847;DHT22;25517;52.422;10.782;2022-12-05T13:53:18;2.70;99.90
39847;DHT22;25517;52.422;10.782;2022-12-05T13:55:56;2.70;99.90
39847;DHT22;25517;52.422;10.782;2022-12-05T14:09:26;2.60;99.90
39847;DHT22;25517;52.422;10.782;2022-12-05T14:17:44;2.60;99.90
39847;DHT22;25517;52.422;10.782;2022-12-05T14:20:24;2.60;99.90
39847;DHT22;25517;52.422;10.782;2022-12-05T14:28:52;2.70;99.90
39847;DHT22;25517;52.422;10.782;2022-12-05T14:31:41;2.60;99.90
39847;DHT22;25517;52.422;10.782;2022-12-05T14:34:14;2.60;99.90
39847;DHT22;25517;52.422;10.782;2022-12-05T14:37:00;2.60;99.90
39847;DHT22;25517;52.422;10.782;2022-12-05T14:39:44;2.60;99.90
39847;DHT22;25517;52.422;10.782;2022-12-05T14:42:59;2.60;99.90
39847;DHT22;25517;52.422;10.782;2022-12-05T14:45:38;2.60;99.90
39847;DHT22;25517;52.422;10.782;2022-12-05T14:48:24;2.60;99.90
39847;DHT22;25517;52.422;10.782;2022-12-05T14:50:53;2.60;99.90
39847;DHT22;25517;52.422;10.782;2022-12-05T14:58:34;2.60;99.90
39847;DHT22;25517;52.422;10.782;2022-12-05T15:01:04;2.50;99.90
39847;DHT22;25517;52.422;10.782;2022-12-05T15:03:41;2.60;99.90
39847;DHT22;25517;52.422;10.782;2022-12-05T15:06:13;2.50;99.90
39847;DHT22;25517;52.422;10.782;2022-12-05T15:08:52;2.60;99.90
39847;DHT22;25517;52.422;10.782;2022-12-05T15:11:23;2.60;99.90
39847;DHT22;25517;52.422;10.782;2022-12-05T15:16:36;2.60;99.90
39847;DHT22;25517;52.422;10.782;2022-12-05T15:19:11;2.50;99.90
39847;DHT22;25517;52.422;10.782;2022-12-05T15:21:45;2.50;99.90
39847;DHT22;25517;52.422;10.782;2022-12-05T15:24:17;2.50;99.90
39847;DHT22;25517;52.422;10.782;2022-12-05T15:26:53;2.50;99.90
39847;DHT22;25517;52.422;10.782;2022-12-05T15:34:44;2.40;99.90
39847;DHT22;25517;52.422;10.782;2022-12-05T15:39:59;2.40;99.90
39847;DHT22;25517;52.422;10.782;2022-12-05T15:42:52;2.40;99.90
39847;DHT22;25517;52.422;10.782;2022-12-05T15:45:29;2.40;99.90
39847;DHT22;25517;52.422;10.782;2022-12-05T15:48:10;2.40;99.90
39847;DHT22;25517;52.422;10.782;2022-12-05T15:50:43;2.40;99.90
39847;DHT22;25517;52.422;10.782;2022-12-05T15:56:03;2.40;99.90
39847;DHT22;25517;52.422;10.782;2022-12-05T15:58:46;2.50;99.90
39847;DHT22;25517;52.422;10.782;2022-12-05T16:01:20;2.40;99.90
39847;DHT22;25517;52.422;10.782;2022-12-05T16:06:36;2.50;99.90
39847;DHT22;25517;52.422;10.782;2022-12-05T16:09:07;2.50;99.90
39847;DHT22;25517;52.422;10.782;2022-12-05T16:11:34;2.50;99.90
39847;DHT22;25517;52.422;10.782;2022-12-05T16:14:02;2.50;99.90
39847;DHT22;25517;52.422;10.782;2022-12-05T16:16:32;2.50;99.90
39847;DHT22;25517;52.422;10.782;2022-12-05T16:19:15;2.50;99.90
39847;DHT22;25517;52.422;10.782;2022-12-05T16:21:44;2.50;99.90
39847;DHT22;25517;52.422;10.782;2022-12-05T16:24:19;2.50;99.90
39847;DHT22;25517;52.422;10.782;2022-12-05T16:27:22;2.50;99.90
39847;DHT22;25517;52.422;10.782;2022-12-05T16:32:39;2.50;99.90
39847;DHT22;25517;52.422;10.782;2022-12-05T16:35:37;2.50;99.90
39847;DHT22;25517;52.422;10.782;2022-12-05T16:38:05;2.40;99.90
39847;DHT22;25517;52.422;10.782;2022-12-05T16:40:31;2.50;99.90
39847;DHT22;25517;52.422;10.782;2022-12-05T16:45:51;2.50;99.90
39847;DHT22;25517;52.422;10.782;2022-12-05T16:48:28;2.40;99.90
39847;DHT22;25517;52.422;10.782;2022-12-05T16:53:42;2.40;99.90
39847;DHT22;25517;52.422;10.782;2022-12-05T16:56:25;2.40;99.90
39847;DHT22;25517;52.422;10.782;2022-12-05T16:58:55;2.40;99.90
39847;DHT22;25517;52.422;10.782;2022-12-05T17:01:24;2.40;99.90
39847;DHT22;25517;52.422;10.782;2022-12-05T17:03:51;2.50;99.90
39847;DHT22;25517;52.422;10.782;2022-12-05T17:06:19;2.50;99.90
39847;DHT22;25517;52.422;10.782;2022-12-05T17:08:49;2.50;99.90
39847;DHT22;25517;52.422;10.782;2022-12-05T17:11:19;2.40;99.90
39847;DHT22;25517;52.422;10.782;2022-12-05T17:13:46;2.50;99.90
39847;DHT22;25517;52.422;10.782;2022-12-05T17:16:13;2.40;99.90
39847;DHT22;25517;52.422;10.782;2022-12-05T17:18:39;2.40;99.90
39847;DHT22;25517;52.422;10.782;2022-12-05T17:21:05;2.40;99.90
39847;DHT22;25517;52.422;10.782;2022-12-05T17:23:31;2.40;99.90
39847;DHT22;25517;52.422;10.782;2022-12-05T17:25:58;2.40;99.90
39847;DHT22;25517;52.422;10.782;2022-12-05T17:28:24;2.40;99.90
39847;DHT22;25517;52.422;10.782;2022-12-05T17:30:50;2.40;99.90
39847;DHT22;25517;52.422;10.782;2022-12-05T17:33:17;2.40;99.90
39847;DHT22;25517;52.422;10.782;2022-12-05T17:35:44;2.40;99.90
39847;DHT22;25517;52.422;10.782;2022-12-05T17:38:10;2.40;99.90
39847;DHT22;25517;52.422;10.782;2022-12-05T17:40:36;2.40;99.90
39847;DHT22;25517;52.422;10.782;2022-12-05T17:43:03;2.30;99.90
39847;DHT22;25517;52.422;10.782;2022-12-05T17:45:29;2.40;99.90
39847;DHT22;25517;52.422;10.782;2022-12-05T17:47:56;2.40;99.90
39847;DHT22;25517;52.422;10.782;2022-12-05T17:50:23;2.40;99.90
39847;DHT22;25517;52.422;10.782;2022-12-05T17:52:50;2.40;99.90
39847;DHT22;25517;52.422;10.782;2022-12-05T17:55:18;2.40;99.90
39847;DHT22;25517;52.422;10.782;2022-12-05T17:57:44;2.30;99.90
39847;DHT22;25517;52.422;10.782;2022-12-05T18:00:11;2.40;99.90
39847;DHT22;25517;52.422;10.782;2022-12-05T18:02:39;2.40;99.90
39847;DHT22;25517;52.422;10.782;2022-12-05T18:05:05;2.30;99.90
39847;DHT22;25517;52.422;10.782;2022-12-05T18:07:31;2.40;99.90
39847;DHT22;25517;52.422;10.782;2022-12-05T18:09:56;2.40;99.90
39847;DHT22;25517;52.422;10.782;2022-12-05T18:12:22;2.40;99.90
39847;DHT22;25517;52.422;10.782;2022-12-05T18:14:48;2.30;99.90
39847;DHT22;25517;52.422;10.782;2022-12-05T18:17:13;2.40;99.90
39847;DHT22;25517;52.422;10.782;2022-12-05T18:19:39;2.30;99.90
39847;DHT22;25517;52.422;10.782;2022-12-05T18:22:05;2.30;99.90
39847;DHT22;25517;52.422;10.782;2022-12-05T18:24:31;2.30;99.90
39847;DHT22;25517;52.422;10.782;2022-12-05T18:26:56;2.30;99.90
39847;DHT22;25517;52.422;10.782;2022-12-05T18:29:23;2.40;99.90
39847;DHT22;25517;52.422;10.782;2022-12-05T18:31:48;2.30;99.90
39847;DHT22;25517;52.422;10.782;2022-12-05T18:34:15;2.40;99.90